TAF PAGY
PAGY 280539Z 2806/2906 35007KT P6SM VCSH FEW070 OVC100 FM281200 22010G20KT P6SM VCSH BKN050 AMD LTD TO CLD VIS AND WIND=
METAR PAGY
WC PAGY
WS PAGY
WV PAGY